Time;durP1;ratioP1;P1;durP2;ratioP2;P2;SDS_P1;SDS_P2;PMS_P1;PMS_P2;Temp;Humidity;BMP_temperature;BMP_pressure;BME280_temperature;BME280_humidity;BME280_pressure;Samples;Min_cycle;Max_cycle;Signal;HPM_P1;HPM_P2
2023/04/25 00:01:37;;;;;;;19.20;12.37;;;8.40;99.90;;;;;;4966635;28;20926;-74
2023/04/25 00:04:05;;;;;;;18.57;12.20;;;8.40;99.90;;;;;;4960473;28;20474;-73
2023/04/25 00:06:32;;;;;;;20.80;11.93;;;8.40;99.90;;;;;;4959461;28;20468;-74
2023/04/25 00:08:59;;;;;;;16.53;11.40;;;8.40;99.90;;;;;;4961809;28;22209;-73
2023/04/25 00:11:27;;;;;;;19.20;12.10;;;8.40;99.90;;;;;;4960991;28;20458;-73
2023/04/25 00:13:54;;;;;;;21.23;11.40;;;8.30;99.90;;;;;;4961515;28;20932;-74
2023/04/25 00:16:20;;;;;;;19.70;10.70;;;8.30;99.90;;;;;;4964106;28;20528;-73
2023/04/25 00:18:51;;;;;;;18.10;11.87;;;8.30;99.90;;;;;;4962783;28;20461;-73
2023/04/25 00:21:18;;;;;;;16.80;11.83;;;8.30;99.90;;;;;;4960536;28;20500;-73
2023/04/25 00:23:45;;;;;;;15.37;10.17;;;8.30;99.90;;;;;;4960683;28;20458;-73
2023/04/25 00:26:12;;;;;;;19.93;11.10;;;8.30;99.90;;;;;;4964170;28;20878;-73
2023/04/25 00:28:40;;;;;;;21.60;11.33;;;8.30;99.90;;;;;;4964015;28;20460;-73
2023/04/25 00:31:07;;;;;;;20.70;11.37;;;8.30;99.90;;;;;;4960752;28;20460;-73
2023/04/25 00:33:34;;;;;;;22.43;11.50;;;8.30;99.90;;;;;;4960866;28;20462;-73
2023/04/25 00:36:01;;;;;;;15.77;10.37;;;8.30;99.90;;;;;;4962016;28;20918;-73
2023/04/25 00:38:28;;;;;;;16.97;11.00;;;8.30;99.90;;;;;;4963759;28;20453;-74
2023/04/25 00:40:55;;;;;;;19.40;10.70;;;8.30;99.90;;;;;;4962205;28;20915;-74
2023/04/25 00:43:22;;;;;;;13.17;9.70;;;8.30;99.90;;;;;;4960435;28;20479;-74
2023/04/25 00:45:52;;;;;;;15.83;10.63;;;8.30;99.90;;;;;;4959960;28;20489;-73
2023/04/25 00:48:22;;;;;;;21.27;10.60;;;8.30;99.90;;;;;;4963752;28;20463;-74
2023/04/25 00:50:52;;;;;;;13.30;9.40;;;8.30;99.90;;;;;;4962944;28;21079;-74
2023/04/25 00:53:19;;;;;;;17.07;11.10;;;8.30;99.90;;;;;;4960235;28;20870;-74
2023/04/25 00:55:46;;;;;;;18.20;10.70;;;8.30;99.90;;;;;;4960254;28;20513;-74
2023/04/25 00:58:13;;;;;;;18.63;10.70;;;8.30;99.90;;;;;;4961261;28;20459;-74
2023/04/25 01:00:41;;;;;;;18.17;9.87;;;8.30;99.90;;;;;;4958080;28;20502;-74
2023/04/25 01:03:09;;;;;;;16.03;10.00;;;8.30;99.90;;;;;;4962233;28;20492;-74
2023/04/25 01:05:36;;;;;;;20.23;9.47;;;8.20;99.90;;;;;;4973569;28;20511;-74
2023/04/25 01:08:03;;;;;;;18.13;10.60;;;8.20;99.90;;;;;;4965144;28;20465;-74
2023/04/25 01:10:29;;;;;;;20.10;10.40;;;8.20;99.90;;;;;;4967348;28;20472;-74
2023/04/25 01:12:56;;;;;;;20.53;11.57;;;8.20;99.90;;;;;;4965307;28;20460;-74
2023/04/25 01:15:23;;;;;;;19.87;11.10;;;8.20;99.90;;;;;;4963981;28;20446;-74
2023/04/25 01:17:50;;;;;;;18.23;10.87;;;8.30;99.90;;;;;;4967382;28;20523;-74
2023/04/25 01:20:19;;;;;;;20.03;11.27;;;8.20;99.90;;;;;;4963704;28;20473;-74
2023/04/25 01:22:47;;;;;;;18.90;10.97;;;8.20;99.90;;;;;;4963727;28;20469;-74
2023/04/25 01:25:14;;;;;;;16.10;10.70;;;8.20;99.90;;;;;;4963435;28;20461;-74
2023/04/25 01:27:41;;;;;;;16.43;11.50;;;8.20;99.90;;;;;;4963700;28;20508;-73
2023/04/25 01:30:09;;;;;;;17.73;11.33;;;8.20;99.90;;;;;;4966224;28;20480;-74
2023/04/25 01:32:38;;;;;;;24.53;11.90;;;8.10;99.90;;;;;;4966462;28;20955;-74
2023/04/25 01:35:08;;;;;;;20.97;11.43;;;8.10;99.90;;;;;;4963973;28;20460;-74
2023/04/25 01:37:36;;;;;;;16.43;10.83;;;8.10;99.90;;;;;;4962979;28;20963;-74
2023/04/25 01:40:05;;;;;;;23.63;10.93;;;8.10;99.90;;;;;;4965281;28;20807;-74
2023/04/25 01:42:32;;;;;;;18.80;11.70;;;8.10;99.90;;;;;;4965754;28;20532;-74
2023/04/25 01:44:59;;;;;;;22.73;10.40;;;8.10;99.90;;;;;;4963808;28;20461;-74
2023/04/25 01:47:26;;;;;;;17.10;11.30;;;8.10;99.90;;;;;;4966397;28;20454;-74
2023/04/25 01:49:52;;;;;;;21.60;11.63;;;8.10;99.90;;;;;;4964532;28;20984;-73
2023/04/25 01:52:19;;;;;;;18.97;11.20;;;8.10;99.90;;;;;;4970470;28;20512;-74
2023/04/25 01:54:46;;;;;;;26.53;11.97;;;8.10;99.90;;;;;;4963260;28;20489;-74
2023/04/25 01:57:14;;;;;;;16.10;11.33;;;8.10;99.90;;;;;;4966212;28;20465;-74
2023/04/25 01:59:42;;;;;;;15.60;11.83;;;8.10;99.90;;;;;;4961703;28;20511;-73
2023/04/25 02:02:09;;;;;;;20.10;12.03;;;8.10;99.90;;;;;;4965765;28;20510;-73
2023/04/25 02:04:36;;;;;;;18.63;12.50;;;8.00;99.90;;;;;;4965267;28;20457;-74
2023/04/25 02:07:03;;;;;;;21.03;12.17;;;8.00;99.90;;;;;;4964273;28;20457;-74
2023/04/25 02:09:30;;;;;;;21.47;12.03;;;8.00;99.90;;;;;;4962831;28;20477;-74
2023/04/25 02:11:57;;;;;;;16.97;11.53;;;8.00;99.90;;;;;;4963186;28;20450;-74
2023/04/25 02:14:25;;;;;;;20.33;11.80;;;8.00;99.90;;;;;;4969202;28;20457;-73
2023/04/25 02:16:52;;;;;;;17.83;11.37;;;8.00;99.90;;;;;;4962164;28;20457;-74
2023/04/25 02:19:18;;;;;;;27.43;13.20;;;8.00;99.90;;;;;;4966482;28;20477;-74
2023/04/25 02:21:45;;;;;;;22.93;13.20;;;8.00;99.90;;;;;;4966864;28;21099;-73
2023/04/25 02:24:12;;;;;;;23.57;12.63;;;7.90;99.90;;;;;;4965355;28;20900;-73
2023/04/25 02:26:38;;;;;;;26.90;13.37;;;7.90;99.90;;;;;;4965635;28;20515;-73
2023/04/25 02:29:05;;;;;;;26.30;14.10;;;7.90;99.90;;;;;;4963674;28;20476;-73
2023/04/25 02:31:33;;;;;;;19.77;12.10;;;7.80;99.90;;;;;;4962404;28;20463;-73
2023/04/25 02:34:00;;;;;;;23.03;13.53;;;7.80;99.90;;;;;;4963669;28;20454;-73
2023/04/25 02:36:27;;;;;;;20.93;12.43;;;7.80;99.90;;;;;;4969172;28;20473;-73
2023/04/25 02:38:54;;;;;;;25.13;12.03;;;7.70;99.90;;;;;;4962601;28;20830;-73
2023/04/25 02:41:20;;;;;;;19.80;11.43;;;7.70;99.90;;;;;;4965731;28;20484;-73
2023/04/25 02:43:47;;;;;;;21.13;12.10;;;7.70;99.90;;;;;;4965575;28;20449;-73
2023/04/25 02:46:15;;;;;;;23.43;11.77;;;7.60;99.90;;;;;;4962443;28;20944;-73
2023/04/25 02:48:43;;;;;;;20.47;11.40;;;7.60;99.90;;;;;;4963395;28;20515;-74
2023/04/25 02:51:10;;;;;;;24.60;12.20;;;7.50;99.90;;;;;;4963280;28;20449;-73
2023/04/25 02:53:36;;;;;;;26.20;10.90;;;7.40;99.90;;;;;;4961872;28;20520;-73
2023/04/25 02:56:03;;;;;;;15.80;10.20;;;7.40;99.90;;;;;;4969714;28;20460;-73
2023/04/25 02:58:30;;;;;;;18.10;11.40;;;7.30;99.90;;;;;;4966002;28;20456;-73
2023/04/25 03:00:56;;;;;;;19.23;11.20;;;7.30;99.90;;;;;;4959997;28;20888;-73
2023/04/25 03:03:23;;;;;;;29.53;12.30;;;7.20;99.90;;;;;;4965694;28;20527;-73
2023/04/25 03:05:52;;;;;;;19.63;11.17;;;7.20;99.90;;;;;;4965330;28;20464;-73
2023/04/25 03:08:19;;;;;;;20.23;10.47;;;7.10;99.90;;;;;;4961803;28;20489;-73
2023/04/25 03:10:46;;;;;;;16.27;11.27;;;7.10;99.90;;;;;;4961886;28;20480;-73
2023/04/25 03:13:13;;;;;;;19.70;10.90;;;7.00;99.90;;;;;;4964166;28;20550;-73
2023/04/25 03:15:40;;;;;;;17.77;9.30;;;7.00;99.90;;;;;;4964808;28;20984;-73
2023/04/25 03:18:06;;;;;;;21.57;9.33;;;7.00;99.90;;;;;;4965070;28;20454;-73
2023/04/25 03:20:33;;;;;;;16.90;8.57;;;6.90;99.90;;;;;;4964582;28;20472;-73
2023/04/25 03:23:01;;;;;;;14.63;8.37;;;6.80;99.90;;;;;;4963876;28;20859;-73
2023/04/25 03:25:27;;;;;;;17.07;7.63;;;6.70;99.90;;;;;;4961114;28;20468;-73
2023/04/25 03:27:55;;;;;;;14.23;8.03;;;6.70;99.90;;;;;;4968195;28;20869;-73
2023/04/25 03:30:21;;;;;;;17.63;7.60;;;6.60;99.90;;;;;;4958071;28;20484;-73
2023/04/25 03:32:48;;;;;;;17.37;7.40;;;6.50;99.90;;;;;;4964870;28;20456;-73
2023/04/25 03:35:15;;;;;;;17.03;7.43;;;6.50;99.90;;;;;;4959035;28;21027;-73
2023/04/25 03:37:45;;;;;;;15.73;6.57;;;6.50;99.90;;;;;;4964274;28;20465;-73
2023/04/25 03:40:13;;;;;;;14.13;6.83;;;6.40;99.90;;;;;;4963226;28;20574;-73
2023/04/25 03:42:39;;;;;;;18.10;6.43;;;6.30;99.90;;;;;;4963693;28;20560;-73
2023/04/25 03:45:08;;;;;;;29.83;6.87;;;6.20;99.90;;;;;;4959290;28;20991;-73
2023/04/25 03:47:34;;;;;;;17.33;6.17;;;6.20;99.90;;;;;;4964666;28;20454;-73
2023/04/25 03:50:02;;;;;;;22.70;8.10;;;6.10;99.90;;;;;;4961863;28;20570;-73
2023/04/25 03:52:29;;;;;;;14.30;7.20;;;6.10;99.90;;;;;;4963416;28;20571;-73
2023/04/25 03:54:56;;;;;;;20.40;6.70;;;6.00;99.90;;;;;;4962288;28;21034;-74
2023/04/25 03:57:23;;;;;;;14.67;6.87;;;6.00;99.90;;;;;;4962286;28;20457;-73
2023/04/25 03:59:50;;;;;;;16.40;7.23;;;5.90;99.90;;;;;;4964685;28;20478;-73
2023/04/25 04:02:17;;;;;;;12.00;6.27;;;5.90;99.90;;;;;;4963913;28;21086;-74
2023/04/25 04:04:44;;;;;;;15.10;6.77;;;5.90;99.90;;;;;;4966111;28;20454;-73
2023/04/25 04:07:10;;;;;;;16.80;7.30;;;5.80;99.90;;;;;;4962257;28;20464;-73
2023/04/25 04:09:37;;;;;;;14.47;6.37;;;5.80;99.90;;;;;;4960628;28;20979;-73
2023/04/25 04:12:04;;;;;;;13.07;6.63;;;5.80;99.90;;;;;;4968655;28;20504;-72
2023/04/25 04:14:32;;;;;;;18.90;7.30;;;5.70;99.90;;;;;;4960229;28;20497;-72
2023/04/25 04:16:59;;;;;;;13.53;7.63;;;5.70;99.90;;;;;;4961960;28;20463;-72
2023/04/25 04:19:26;;;;;;;15.70;6.53;;;5.70;99.90;;;;;;4964862;28;20486;-72
2023/04/25 04:21:53;;;;;;;13.90;6.50;;;5.70;99.90;;;;;;4964151;28;20483;-72
2023/04/25 04:24:20;;;;;;;19.30;7.83;;;5.70;99.90;;;;;;4963310;28;20486;-72
2023/04/25 04:26:46;;;;;;;19.83;6.70;;;5.70;99.90;;;;;;4965111;28;20842;-71
2023/04/25 04:29:20;;;;;;;10.80;7.67;;;5.70;99.90;;;;;;4962874;28;20481;-72
2023/04/25 04:31:49;;;;;;;13.17;7.30;;;5.70;99.90;;;;;;4962769;28;20470;-71
2023/04/25 04:34:16;;;;;;;17.80;7.30;;;5.70;99.90;;;;;;4962581;28;20552;-72
2023/04/25 04:36:42;;;;;;;15.47;7.23;;;5.70;99.90;;;;;;4964092;28;20785;-72
2023/04/25 04:39:10;;;;;;;18.93;7.77;;;5.70;99.90;;;;;;4961523;28;20575;-72
2023/04/25 04:41:37;;;;;;;22.90;7.00;;;5.70;99.90;;;;;;4961859;28;20545;-72
2023/04/25 04:44:04;;;;;;;17.07;8.03;;;5.70;99.90;;;;;;4962017;28;20966;-72
2023/04/25 04:46:31;;;;;;;16.80;7.80;;;5.70;99.90;;;;;;4960199;28;20459;-72
2023/04/25 04:48:59;;;;;;;20.93;7.70;;;5.70;99.90;;;;;;4960053;28;21007;-72
2023/04/25 04:51:25;;;;;;;15.50;7.70;;;5.70;99.90;;;;;;4960040;28;20461;-72
2023/04/25 04:53:52;;;;;;;15.53;7.57;;;5.80;99.90;;;;;;4963553;28;20502;-72
2023/04/25 04:56:20;;;;;;;22.63;8.37;;;5.80;99.90;;;;;;4960294;28;20511;-72
2023/04/25 04:58:48;;;;;;;14.90;6.87;;;5.80;99.90;;;;;;4959730;28;20499;-72
2023/04/25 05:01:16;;;;;;;14.33;7.90;;;5.90;99.90;;;;;;4960236;28;21038;-72
2023/04/25 05:03:42;;;;;;;16.80;7.53;;;5.90;99.90;;;;;;4959961;28;21058;-72
2023/04/25 05:06:10;;;;;;;20.83;7.33;;;5.90;99.90;;;;;;4962293;28;20486;-72
2023/04/25 05:08:37;;;;;;;18.43;8.30;;;5.90;99.90;;;;;;4963288;28;20461;-72
2023/04/25 05:11:04;;;;;;;12.30;6.60;;;6.00;99.90;;;;;;4962204;28;20479;-72
2023/04/25 05:13:31;;;;;;;12.93;7.20;;;6.10;99.90;;;;;;4960886;28;20488;-71
2023/04/25 05:15:57;;;;;;;12.87;6.53;;;6.20;99.90;;;;;;4959704;28;20939;-72
2023/04/25 05:18:24;;;;;;;12.00;6.27;;;6.30;99.90;;;;;;4962760;28;20506;-72
2023/04/25 05:20:50;;;;;;;9.47;5.57;;;6.30;99.90;;;;;;4963109;28;20533;-72
2023/04/25 05:23:18;;;;;;;9.53;6.17;;;6.40;99.90;;;;;;4961093;28;20920;-70
2023/04/25 05:25:45;;;;;;;14.90;6.03;;;6.60;99.90;;;;;;4959993;28;20507;-71
2023/04/25 05:28:13;;;;;;;13.20;5.50;;;6.80;99.90;;;;;;4965638;28;20867;-70
2023/04/25 05:30:40;;;;;;;10.03;4.80;;;7.00;99.90;;;;;;4964557;28;20481;-70
2023/04/25 05:33:07;;;;;;;9.47;5.40;;;7.10;99.90;;;;;;4967340;28;20484;-70
2023/04/25 05:35:34;;;;;;;7.20;4.87;;;7.10;99.90;;;;;;4963026;28;20510;-70
2023/04/25 05:38:01;;;;;;;7.60;3.93;;;7.10;99.90;;;;;;4969518;28;20541;-70
2023/04/25 05:40:29;;;;;;;6.40;4.67;;;7.10;99.90;;;;;;4963189;28;20530;-70
2023/04/25 05:42:55;;;;;;;10.67;4.60;;;7.20;99.90;;;;;;4959780;28;20488;-70
2023/04/25 05:45:22;;;;;;;9.37;5.30;;;7.40;99.90;;;;;;4963417;28;20456;-70
2023/04/25 05:47:49;;;;;;;10.50;4.70;;;7.70;99.90;;;;;;4962894;28;20508;-70
2023/04/25 05:50:15;;;;;;;12.33;4.50;;;8.00;99.90;;;;;;4963152;28;20527;-71
2023/04/25 05:52:42;;;;;;;6.33;4.20;;;8.40;99.90;;;;;;4969110;28;20457;-70
2023/04/25 05:55:09;;;;;;;7.93;3.93;;;8.80;99.90;;;;;;4964071;28;20493;-70
2023/04/25 05:57:41;;;;;;;6.97;4.40;;;9.10;99.90;;;;;;4971140;28;20885;-70
2023/04/25 06:00:09;;;;;;;6.93;4.60;;;9.20;99.90;;;;;;4957190;28;20568;-69
2023/04/25 06:02:36;;;;;;;14.13;5.00;;;9.30;99.90;;;;;;4966158;28;20579;-69
2023/04/25 06:05:03;;;;;;;14.40;4.37;;;9.50;99.90;;;;;;4958994;28;21073;-67
2023/04/25 06:07:30;;;;;;;4.93;4.30;;;9.80;99.90;;;;;;4961846;28;20499;-67
2023/04/25 06:09:57;;;;;;;8.13;4.47;;;10.30;99.90;;;;;;4961266;28;20477;-67
2023/04/25 06:12:24;;;;;;;8.40;4.68;;;10.70;99.90;;;;;;4960758;28;20440;-70
2023/04/25 06:14:52;;;;;;;9.67;4.33;;;10.90;99.90;;;;;;4960430;28;20697;-72
2023/04/25 06:17:19;;;;;;;14.30;5.30;;;10.50;99.90;;;;;;4960657;28;20541;-72
2023/04/25 06:19:45;;;;;;;5.93;4.17;;;9.90;99.90;;;;;;4961377;28;20465;-71
2023/04/25 06:22:12;;;;;;;13.33;5.23;;;9.20;99.90;;;;;;4960979;28;20461;-72
2023/04/25 06:24:38;;;;;;;10.20;5.13;;;8.70;99.90;;;;;;4960729;28;20881;-71
2023/04/25 06:27:05;;;;;;;9.00;5.27;;;8.30;99.90;;;;;;4960695;28;20457;-72
2023/04/25 06:29:32;;;;;;;10.77;4.87;;;8.20;99.90;;;;;;4960919;28;20477;-72
2023/04/25 06:32:00;;;;;;;14.27;5.90;;;8.20;99.90;;;;;;4960650;28;20983;-72
2023/04/25 06:34:26;;;;;;;12.03;5.87;;;8.30;99.90;;;;;;4960799;28;20457;-72
2023/04/25 06:36:53;;;;;;;10.40;5.33;;;8.40;99.90;;;;;;4960831;28;20465;-71
2023/04/25 06:39:22;;;;;;;9.90;6.07;;;8.50;99.90;;;;;;4960834;28;20477;-72
2023/04/25 06:41:49;;;;;;;12.10;5.93;;;8.50;99.90;;;;;;4960517;28;20457;-72
2023/04/25 06:44:16;;;;;;;9.97;6.20;;;8.50;99.90;;;;;;4960546;28;20920;-70
2023/04/25 06:46:42;;;;;;;9.13;5.83;;;8.90;99.90;;;;;;4960681;28;20495;-70
2023/04/25 06:49:10;;;;;;;9.40;5.75;;;9.60;99.90;;;;;;4960731;28;20424;-71
2023/04/25 06:51:37;;;;;;;8.70;5.60;;;10.10;99.90;;;;;;4960453;28;20253;-71
2023/04/25 06:54:05;;;;;;;14.83;6.60;;;10.30;99.90;;;;;;4959979;28;20454;-69
2023/04/25 06:56:31;;;;;;;9.30;5.37;;;10.30;99.90;;;;;;4959939;28;20449;-71
2023/04/25 06:59:00;;;;;;;8.07;6.40;;;10.60;99.90;;;;;;4960216;28;20461;-70
2023/04/25 07:01:26;;;;;;;21.60;6.80;;;10.80;99.90;;;;;;4959852;28;20517;-70
2023/04/25 07:03:53;;;;;;;13.17;6.37;;;10.90;99.90;;;;;;4959928;28;20536;-70
2023/04/25 07:06:21;;;;;;;11.97;5.73;;;10.70;99.90;;;;;;4959655;28;20454;-71
2023/04/25 07:08:48;;;;;;;10.03;6.60;;;10.50;99.90;;;;;;4960279;28;20455;-71
2023/04/25 07:11:15;;;;;;;10.27;5.63;;;10.50;99.90;;;;;;4960062;28;20541;-71
2023/04/25 07:13:41;;;;;;;12.20;6.03;;;10.30;99.90;;;;;;4959813;28;20511;-71
2023/04/25 07:16:08;;;;;;;14.90;5.60;;;10.10;99.90;;;;;;4959692;28;20582;-70
2023/04/25 07:18:34;;;;;;;11.13;5.53;;;9.80;99.90;;;;;;4959917;28;20520;-71
2023/04/25 07:21:01;;;;;;;10.67;6.20;;;9.90;99.90;;;;;;4959291;28;20529;-70
2023/04/25 07:23:29;;;;;;;9.83;5.97;;;9.90;99.90;;;;;;4960145;28;20895;-70
2023/04/25 07:25:56;;;;;;;13.00;6.60;;;9.80;99.90;;;;;;4959884;28;20458;-71
2023/04/25 07:28:23;;;;;;;12.77;6.27;;;9.80;99.90;;;;;;4960096;28;20457;-70
2023/04/25 07:30:49;;;;;;;10.80;6.20;;;9.90;99.90;;;;;;4959046;28;20520;-69
2023/04/25 07:33:16;;;;;;;13.83;6.50;;;9.80;99.90;;;;;;4959734;28;20457;-70
2023/04/25 07:35:43;;;;;;;12.27;6.67;;;9.80;99.90;;;;;;4959099;28;20951;-71
2023/04/25 07:38:10;;;;;;;12.20;7.43;;;9.90;99.90;;;;;;4959516;28;20453;-70
2023/04/25 07:40:38;;;;;;;10.60;6.07;;;9.80;99.90;;;;;;4959800;28;20477;-70
2023/04/25 07:43:04;;;;;;;15.97;6.60;;;9.70;99.90;;;;;;4959432;28;21084;-71
2023/04/25 07:45:31;;;;;;;9.47;5.70;;;9.70;99.90;;;;;;4958514;28;20457;-71
2023/04/25 07:47:57;;;;;;;11.90;6.50;;;9.70;99.90;;;;;;4959457;28;20505;-71
2023/04/25 07:50:24;;;;;;;8.63;6.00;;;9.70;99.90;;;;;;4959048;28;20461;-71
2023/04/25 07:52:51;;;;;;;9.57;5.60;;;9.70;99.90;;;;;;4959006;28;21016;-72
2023/04/25 07:55:17;;;;;;;9.03;6.53;;;9.70;99.90;;;;;;4957591;28;20466;-71
2023/04/25 07:57:45;;;;;;;11.23;6.90;;;9.80;99.90;;;;;;4959056;28;20457;-72
2023/04/25 08:00:14;;;;;;;12.83;6.43;;;9.80;99.90;;;;;;4958996;28;20465;-70
2023/04/25 08:02:41;;;;;;;10.80;6.53;;;9.80;99.90;;;;;;4960326;28;20558;-71
2023/04/25 08:05:11;;;;;;;10.93;7.20;;;9.80;99.90;;;;;;4963466;28;20460;-71
2023/04/25 08:07:38;;;;;;;10.23;6.57;;;10.00;99.90;;;;;;4962405;28;20453;-69
2023/04/25 08:10:06;;;;;;;12.07;6.93;;;10.10;99.90;;;;;;4964795;28;20485;-71
2023/04/25 08:12:32;;;;;;;10.57;6.70;;;10.20;99.90;;;;;;4955499;28;20449;-71
2023/04/25 08:15:00;;;;;;;12.07;6.40;;;10.20;99.90;;;;;;4959083;28;20486;-68
2023/04/25 08:17:27;;;;;;;10.90;6.70;;;10.20;99.90;;;;;;4958772;28;20484;-70
2023/04/25 08:19:55;;;;;;;15.50;6.80;;;10.20;99.90;;;;;;4958891;28;20485;-70
2023/04/25 08:22:21;;;;;;;11.57;7.60;;;10.20;99.90;;;;;;4958720;28;20460;-70
2023/04/25 08:24:48;;;;;;;9.17;6.87;;;10.20;99.90;;;;;;4958789;28;20489;-69
2023/04/25 08:27:15;;;;;;;11.80;7.00;;;10.50;99.90;;;;;;4958344;28;20460;-70
2023/04/25 08:29:42;;;;;;;9.77;6.63;;;10.90;99.90;;;;;;4959055;28;20487;-70
2023/04/25 08:32:10;;;;;;;11.53;6.73;;;11.00;99.90;;;;;;4958449;28;20458;-69
2023/04/25 08:34:39;;;;;;;9.50;6.53;;;11.00;99.90;;;;;;4958521;28;20457;-70
2023/04/25 08:37:05;;;;;;;7.40;6.13;;;11.10;99.90;;;;;;4958856;28;20465;-70
2023/04/25 08:39:32;;;;;;;10.77;5.87;;;11.10;99.90;;;;;;4958639;28;20473;-70
2023/04/25 08:41:59;;;;;;;13.07;6.83;;;11.20;99.90;;;;;;4958390;28;20457;-70
2023/04/25 08:44:25;;;;;;;9.13;6.27;;;11.30;99.90;;;;;;4958292;28;20489;-69
2023/04/25 08:46:53;;;;;;;16.77;6.67;;;11.60;99.90;;;;;;4958813;28;20465;-70
2023/04/25 08:49:21;;;;;;;7.50;6.60;;;11.70;99.90;;;;;;4958535;28;20472;-70
2023/04/25 08:51:50;;;;;;;12.70;6.30;;;11.80;99.90;;;;;;4958835;28;20560;-70
2023/04/25 08:54:17;;;;;;;13.73;6.67;;;12.00;99.90;;;;;;4957789;28;20941;-69
2023/04/25 08:56:46;;;;;;;10.17;6.90;;;12.20;99.90;;;;;;4958577;28;20548;-69
2023/04/25 08:59:13;;;;;;;10.47;6.63;;;12.20;99.90;;;;;;4958502;28;20473;-70
2023/04/25 09:01:40;;;;;;;12.20;7.43;;;12.30;99.90;;;;;;4958274;28;20974;-69
2023/04/25 09:04:07;;;;;;;12.20;6.10;;;12.20;99.90;;;;;;4958190;28;20524;-70
2023/04/25 09:06:35;;;;;;;13.50;6.97;;;12.20;99.90;;;;;;4958528;28;20453;-70
2023/04/25 09:09:05;;;;;;;12.23;6.97;;;11.80;99.90;;;;;;4958193;28;20548;-70
2023/04/25 09:11:32;;;;;;;11.80;7.60;;;11.60;99.90;;;;;;4958428;28;21099;-70
2023/04/25 09:14:12;;;;;;;10.90;6.60;;;11.40;99.90;;;;;;4958048;28;20508;-71
2023/04/25 09:16:59;;;;;;;19.20;7.00;;;11.20;99.90;;;;;;4958211;28;20452;-70
2023/04/25 09:19:27;;;;;;;7.10;6.40;;;11.00;99.90;;;;;;4958535;28;20602;-70
2023/04/25 09:21:57;;;;;;;16.20;6.83;;;10.80;99.90;;;;;;4958509;28;20453;-70
2023/04/25 09:24:32;;;;;;;14.40;6.63;;;10.50;99.90;;;;;;4957636;28;20541;-70
2023/04/25 09:26:58;;;;;;;8.03;5.93;;;10.30;99.90;;;;;;4961416;28;20568;-70
2023/04/25 09:29:30;;;;;;;11.43;5.50;;;10.20;99.90;;;;;;4961977;28;20481;-71
2023/04/25 09:32:12;;;;;;;8.17;5.90;;;10.00;99.90;;;;;;4962109;28;20466;-71
2023/04/25 09:34:41;;;;;;;6.90;4.93;;;9.90;99.90;;;;;;4961987;28;20441;-71
2023/04/25 09:37:11;;;;;;;6.17;4.40;;;9.90;99.90;;;;;;4961919;28;20508;-71
2023/04/25 09:39:38;;;;;;;6.47;4.40;;;9.90;99.90;;;;;;4961510;28;20476;-70
2023/04/25 09:42:05;;;;;;;5.53;4.23;;;9.90;99.90;;;;;;4961754;28;20519;-71
2023/04/25 09:44:32;;;;;;;10.83;4.47;;;9.90;99.90;;;;;;4961296;28;20551;-71
2023/04/25 09:46:59;;;;;;;7.43;4.13;;;9.90;99.90;;;;;;4961911;28;20449;-70
2023/04/25 09:49:27;;;;;;;8.20;4.13;;;9.90;99.90;;;;;;4961485;28;20887;-70
2023/04/25 09:51:57;;;;;;;5.30;4.00;;;10.00;99.90;;;;;;4961720;28;20500;-71
2023/04/25 09:54:26;;;;;;;6.77;3.83;;;10.20;99.90;;;;;;4961182;28;20454;-71
2023/04/25 09:56:54;;;;;;;11.20;4.57;;;10.40;99.90;;;;;;4962044;28;20465;-70
2023/04/25 09:59:22;;;;;;;8.73;3.80;;;10.60;99.90;;;;;;4961753;28;20535;-71
2023/04/25 10:01:50;;;;;;;10.73;4.50;;;10.80;99.90;;;;;;4961296;28;20464;-70
2023/04/25 10:04:21;;;;;;;4.73;4.20;;;11.00;99.90;;;;;;4960945;28;20584;-70
2023/04/25 10:06:50;;;;;;;7.83;4.00;;;11.20;99.90;;;;;;4960959;28;20453;-71
2023/04/25 10:09:17;;;;;;;7.77;4.10;;;11.40;99.90;;;;;;4960898;28;20488;-71
2023/04/25 10:11:47;;;;;;;10.80;4.40;;;11.40;99.90;;;;;;4961337;28;20485;-71
2023/04/25 10:14:14;;;;;;;13.77;4.53;;;11.60;99.90;;;;;;4960935;28;20466;-71
2023/04/25 10:16:42;;;;;;;4.87;3.53;;;11.70;99.90;;;;;;4961019;28;20452;-71
2023/04/25 10:19:10;;;;;;;9.03;3.57;;;11.80;99.90;;;;;;4961176;28;20470;-71
2023/04/25 10:21:40;;;;;;;8.30;3.40;;;12.00;99.90;;;;;;4961309;28;20460;-70
2023/04/25 10:24:07;;;;;;;8.37;4.10;;;12.20;99.90;;;;;;4960579;28;20542;-71
2023/04/25 10:26:34;;;;;;;12.57;3.90;;;12.50;99.90;;;;;;4960613;28;20490;-71
2023/04/25 10:29:04;;;;;;;8.50;3.47;;;12.80;99.90;;;;;;4960774;28;20473;-71
2023/04/25 10:31:31;;;;;;;7.27;2.70;;;13.00;99.90;;;;;;4962645;28;21370;-70
2023/04/25 10:33:58;;;;;;;6.20;2.70;;;13.20;99.90;;;;;;4960107;28;20881;-70
2023/04/25 10:36:26;;;;;;;10.60;3.70;;;13.10;99.90;;;;;;4959937;28;20229;-69
2023/04/25 10:38:54;;;;;;;9.17;3.63;;;12.90;99.90;;;;;;4960595;28;20881;-71
2023/04/25 10:41:22;;;;;;;3.93;3.40;;;12.90;99.90;;;;;;4960165;28;20461;-70
2023/04/25 10:43:50;;;;;;;8.63;3.37;;;12.80;99.90;;;;;;4959355;28;20530;-71
2023/04/25 10:46:20;;;;;;;12.13;3.97;;;12.80;99.90;;;;;;4959046;28;21115;-71
2023/04/25 10:48:51;;;;;;;7.97;3.80;;;12.60;99.90;;;;;;4959179;28;21061;-71
2023/04/25 10:51:22;;;;;;;6.63;3.27;;;12.50;99.90;;;;;;4958733;28;20465;-71
2023/04/25 10:53:59;;;;;;;9.10;3.40;;;12.40;99.90;;;;;;4959573;28;20460;-72
2023/04/25 10:56:28;;;;;;;9.40;3.97;;;12.30;99.90;;;;;;4957574;28;20548;-71
2023/04/25 10:59:09;;;;;;;8.68;3.40;;;12.20;99.90;;;;;;4958939;28;20509;-71
2023/04/25 11:01:40;;;;;;;10.80;3.90;;;12.30;99.90;;;;;;4959345;28;20213;-71
2023/04/25 11:04:07;;;;;;;4.90;3.10;;;12.60;99.90;;;;;;4959494;28;20493;-70
2023/04/25 11:06:46;;;;;;;4.73;3.20;;;12.70;99.90;;;;;;4957955;28;20462;-70
2023/04/25 11:09:14;;;;;;;10.47;3.53;;;12.80;99.90;;;;;;4960120;28;20544;-70
2023/04/25 11:11:40;;;;;;;5.60;3.07;;;13.00;99.90;;;;;;4957763;28;20458;-71
2023/04/25 11:14:07;;;;;;;6.57;3.37;;;13.20;99.90;;;;;;4957034;28;20557;-71
2023/04/25 11:16:34;;;;;;;6.10;3.40;;;13.20;99.90;;;;;;4956461;28;20474;-71
2023/04/25 11:19:02;;;;;;;8.27;3.20;;;12.90;99.90;;;;;;4958859;28;20524;-70
2023/04/25 11:21:31;;;;;;;6.33;3.60;;;12.70;99.90;;;;;;4959357;28;20516;-71
2023/04/25 11:23:58;;;;;;;6.43;3.30;;;12.50;99.90;;;;;;4955713;28;20535;-70
2023/04/25 11:26:25;;;;;;;13.23;3.70;;;12.40;99.90;;;;;;4955430;28;20462;-71
2023/04/25 11:28:52;;;;;;;5.97;3.60;;;12.40;99.90;;;;;;4959143;28;20528;-70
2023/04/25 11:31:21;;;;;;;11.10;3.90;;;12.30;99.90;;;;;;4959024;28;20462;-70
2023/04/25 11:33:48;;;;;;;7.57;3.43;;;12.20;99.90;;;;;;4958936;28;21053;-69
2023/04/25 11:36:16;;;;;;;7.60;3.63;;;12.10;99.90;;;;;;4958058;28;20494;-70
2023/04/25 11:38:42;;;;;;;13.70;3.87;;;12.00;99.90;;;;;;4959235;28;20883;-70
2023/04/25 11:41:09;;;;;;;7.33;3.63;;;11.90;99.90;;;;;;4959387;28;20462;-70
2023/04/25 11:43:36;;;;;;;8.87;3.67;;;11.70;99.90;;;;;;4957620;28;20456;-71
2023/04/25 11:46:07;;;;;;;10.53;3.80;;;11.60;99.90;;;;;;4956650;28;21005;-69
2023/04/25 11:48:38;;;;;;;7.93;4.13;;;11.50;99.90;;;;;;4958250;28;20461;-70
2023/04/25 11:51:05;;;;;;;6.47;4.00;;;11.40;99.90;;;;;;4958861;28;20484;-70
2023/04/25 11:53:33;;;;;;;8.87;4.00;;;11.30;99.90;;;;;;4958457;28;20891;-71
2023/04/25 11:56:00;;;;;;;10.50;3.90;;;11.40;99.90;;;;;;4956393;28;21013;-70
2023/04/25 11:58:27;;;;;;;6.70;3.93;;;11.40;99.90;;;;;;4958460;28;20508;-70
2023/04/25 12:00:54;;;;;;;3.70;3.30;;;11.40;99.90;;;;;;4958598;28;20845;-71
2023/04/25 12:03:23;;;;;;;9.83;4.43;;;11.40;99.90;;;;;;4958407;28;20519;-71
2023/04/25 12:05:51;;;;;;;4.17;3.33;;;11.60;99.90;;;;;;4957699;28;20568;-71
2023/04/25 12:08:18;;;;;;;6.73;4.03;;;11.60;99.90;;;;;;4959009;28;20453;-70
2023/04/25 12:10:46;;;;;;;5.73;3.67;;;11.70;99.90;;;;;;4956217;28;20480;-70
2023/04/25 12:13:21;;;;;;;9.43;4.67;;;11.70;99.90;;;;;;4955647;28;20453;-70
2023/04/25 12:15:48;;;;;;;8.57;4.53;;;12.10;99.90;;;;;;4954965;28;20456;-70
2023/04/25 12:18:15;;;;;;;8.27;4.30;;;12.60;99.90;;;;;;4955479;28;20476;-70
2023/04/25 12:20:42;;;;;;;7.93;4.07;;;12.90;99.90;;;;;;4956651;28;20887;-69
2023/04/25 12:23:10;;;;;;;7.50;3.97;;;13.10;99.90;;;;;;4956319;28;20459;-69
2023/04/25 12:25:38;;;;;;;8.63;3.80;;;13.10;99.90;;;;;;4957759;28;20505;-70
2023/04/25 12:28:14;;;;;;;8.70;3.90;;;13.00;99.90;;;;;;4957976;28;20470;-69
2023/04/25 12:30:54;;;;;;;6.43;4.00;;;12.90;99.90;;;;;;4957766;28;20473;-70
2023/04/25 12:33:21;;;;;;;11.17;4.53;;;12.90;99.90;;;;;;4956101;28;20537;-69
2023/04/25 12:35:48;;;;;;;8.67;4.30;;;13.40;99.90;;;;;;4957308;28;20458;-70
2023/04/25 12:38:22;;;;;;;9.73;4.47;;;13.90;99.90;;;;;;4957408;28;20457;-70
2023/04/25 12:40:48;;;;;;;8.03;4.00;;;14.40;99.90;;;;;;4955052;28;20483;-70
2023/04/25 12:43:16;;;;;;;10.77;3.90;;;14.90;99.90;;;;;;4957086;28;20536;-71
2023/04/25 12:45:43;;;;;;;5.33;3.80;;;15.40;99.90;;;;;;4956361;28;20488;-70